createdAt,value
2022-12-24T00:02:23.216Z,37.78
2022-12-24T00:05:25.949Z,37.60
2022-12-24T00:08:28.195Z,37.67
2022-12-24T00:11:31.078Z,38.70
2022-12-24T00:14:33.676Z,37.03
2022-12-24T00:17:36.454Z,38.70
2022-12-24T00:20:38.882Z,38.45
2022-12-24T00:23:41.786Z,37.70
2022-12-24T00:26:44.007Z,38.60
2022-12-24T00:29:47.124Z,35.75
2022-12-24T00:32:49.425Z,36.55
2022-12-24T00:35:53.344Z,35.60
2022-12-24T00:38:55.712Z,38.15
2022-12-24T00:41:58.548Z,36.20
2022-12-24T00:45:00.829Z,34.90
2022-12-24T00:48:03.626Z,33.63
2022-12-24T00:51:05.912Z,34.58
2022-12-24T00:54:09.193Z,35.78
2022-12-24T00:57:11.409Z,35.75
2022-12-24T01:00:16.015Z,36.85
2022-12-24T01:03:18.296Z,36.33
2022-12-24T01:06:22.138Z,34.92
2022-12-24T01:09:24.355Z,36.38
2022-12-24T01:12:27.339Z,36.10
2022-12-24T01:15:29.808Z,35.53
2022-12-24T01:18:32.926Z,37.40
2022-12-24T01:21:35.155Z,34.30
2022-12-24T01:24:37.773Z,35.35
2022-12-24T01:27:40.183Z,34.45
2022-12-24T01:30:43.868Z,33.53
2022-12-24T01:33:48.861Z,34.05
2022-12-24T01:36:51.500Z,34.85
2022-12-24T01:40:13.777Z,33.42
2022-12-24T01:43:24.442Z,33.35
2022-12-24T01:46:32.118Z,36.43
2022-12-24T01:49:37.656Z,34.95
2022-12-24T01:52:40.082Z,37.22
2022-12-24T01:55:43.747Z,35.97
2022-12-24T01:58:50.867Z,38.45
2022-12-24T02:01:53.905Z,35.53
2022-12-24T02:05:03.032Z,35.08
2022-12-24T02:08:06.203Z,36.08
2022-12-24T02:11:20.611Z,36.72
2022-12-24T02:14:29.281Z,35.67
2022-12-24T02:17:46.802Z,34.00
2022-12-24T02:21:07.424Z,34.20
2022-12-24T02:24:54.935Z,36.38
2022-12-24T02:28:09.282Z,35.45
2022-12-24T02:31:29.720Z,35.45
2022-12-24T02:34:46.502Z,35.28
2022-12-24T02:38:44.529Z,32.58
2022-12-24T02:42:08.141Z,33.65
2022-12-24T02:45:15.962Z,33.15
2022-12-24T02:48:20.637Z,34.75
2022-12-24T02:51:24.725Z,35.10
2022-12-24T02:54:27.465Z,33.92
2022-12-24T02:57:48.899Z,33.28
2022-12-24T03:01:16.235Z,33.28
2022-12-24T03:04:40.832Z,34.40
2022-12-24T03:08:08.214Z,32.53
2022-12-24T03:11:15.278Z,33.95
2022-12-24T03:14:18.574Z,32.20
2022-12-24T03:17:21.615Z,32.25
2022-12-24T03:20:31.263Z,34.33
2022-12-24T03:23:35.010Z,32.92
2022-12-24T03:26:39.105Z,33.58
2022-12-24T03:29:42.479Z,33.60
2022-12-24T03:32:46.322Z,33.20
2022-12-24T03:35:48.871Z,33.38
2022-12-24T03:38:51.105Z,32.20
2022-12-24T03:41:53.594Z,32.08
2022-12-24T03:44:55.800Z,33.42
2022-12-24T03:47:58.503Z,32.95
2022-12-24T03:51:00.916Z,32.65
2022-12-24T03:54:03.496Z,32.20
2022-12-24T03:57:05.700Z,31.83
2022-12-24T04:00:08.919Z,32.72
2022-12-24T04:03:14.001Z,32.85
2022-12-24T04:06:17.996Z,31.42
2022-12-24T04:09:20.188Z,31.73
2022-12-24T04:12:22.844Z,30.42
2022-12-24T04:15:25.170Z,30.42
2022-12-24T04:18:28.739Z,31.05
2022-12-24T04:21:30.997Z,30.42
2022-12-24T04:24:33.779Z,29.87
2022-12-24T04:27:35.975Z,30.40
2022-12-24T04:30:39.268Z,30.08
2022-12-24T04:33:41.718Z,29.95
2022-12-24T04:36:44.275Z,29.35
2022-12-24T04:39:46.438Z,29.90
2022-12-24T04:42:50.428Z,29.58
2022-12-24T04:45:52.807Z,27.85
2022-12-24T04:48:55.441Z,28.23
2022-12-24T04:51:57.722Z,28.05
2022-12-24T04:55:00.252Z,26.33
2022-12-24T04:58:02.532Z,27.45
2022-12-24T05:01:07.362Z,27.37
2022-12-24T05:04:11.156Z,27.02
2022-12-24T05:07:13.709Z,28.42
2022-12-24T05:10:15.974Z,28.83
2022-12-24T05:13:19.076Z,28.38
2022-12-24T05:16:23.444Z,28.48
2022-12-24T05:19:26.080Z,28.27
2022-12-24T05:22:47.034Z,28.42
2022-12-24T05:26:07.812Z,26.80
2022-12-24T05:29:14.592Z,29.25
2022-12-24T05:32:17.147Z,29.35
2022-12-24T05:35:19.360Z,29.65
2022-12-24T05:38:21.916Z,29.65
2022-12-24T05:41:24.953Z,27.40
2022-12-24T05:44:27.776Z,28.08
2022-12-24T05:47:30.293Z,27.15
2022-12-24T05:50:32.976Z,29.00
2022-12-24T05:53:40.351Z,29.55
2022-12-24T05:56:42.996Z,29.02
2022-12-24T05:59:45.367Z,29.02
2022-12-24T06:02:48.062Z,26.58
2022-12-24T06:06:19.365Z,26.67
2022-12-24T06:09:21.919Z,23.23
2022-12-24T06:12:24.489Z,24.65
2022-12-24T06:15:26.718Z,25.23
2022-12-24T06:18:30.953Z,28.77
2022-12-24T06:21:33.181Z,27.15
2022-12-24T06:24:35.720Z,28.45
2022-12-24T06:27:37.884Z,28.55
2022-12-24T06:30:41.338Z,27.60
2022-12-24T06:33:44.096Z,25.45
2022-12-24T06:36:46.691Z,24.25
2022-12-24T06:39:48.883Z,25.33
2022-12-24T06:42:51.429Z,25.65
2022-12-24T06:45:53.731Z,25.55
2022-12-24T06:48:56.216Z,27.52
2022-12-24T06:51:58.340Z,27.60
2022-12-24T06:55:00.871Z,26.85
2022-12-24T06:58:03.523Z,27.13
2022-12-24T07:01:07.675Z,26.95
2022-12-24T07:04:14.530Z,24.60
2022-12-24T07:07:20.558Z,24.95
2022-12-24T07:10:23.239Z,25.05
2022-12-24T07:13:25.936Z,24.17
2022-12-24T07:16:28.241Z,22.80
2022-12-24T07:19:31.035Z,23.08
2022-12-24T07:22:33.357Z,21.02
2022-12-24T07:25:36.139Z,19.90
2022-12-24T07:28:38.362Z,15.38
2022-12-24T07:31:40.959Z,16.37
2022-12-24T07:34:43.201Z,16.80
2022-12-24T07:37:45.803Z,17.52
2022-12-24T07:40:48.586Z,18.45
2022-12-24T07:43:51.104Z,18.25
2022-12-24T07:46:53.392Z,17.23
2022-12-24T07:49:56.010Z,13.73
2022-12-24T07:52:58.258Z,10.90
2022-12-24T07:56:01.165Z,9.40
2022-12-24T07:59:03.427Z,9.18
2022-12-24T08:02:06.151Z,9.07
2022-12-24T08:05:09.088Z,8.60
2022-12-24T08:08:11.310Z,8.32
2022-12-24T08:11:14.494Z,7.57
2022-12-24T08:14:16.687Z,7.10
2022-12-24T08:17:19.113Z,5.20
2022-12-24T08:20:21.475Z,5.10
2022-12-24T08:23:24.377Z,4.00
2022-12-24T08:26:26.652Z,4.00
2022-12-24T08:29:29.367Z,4.43
2022-12-24T08:32:32.029Z,5.15
2022-12-24T08:35:34.635Z,4.30
2022-12-24T08:38:36.860Z,3.70
2022-12-24T08:41:40.294Z,3.75
2022-12-24T08:44:42.486Z,4.07
2022-12-24T08:47:45.140Z,3.15
2022-12-24T08:50:47.514Z,3.50
2022-12-24T08:53:50.491Z,4.15
2022-12-24T08:56:52.746Z,3.85
2022-12-24T08:59:55.236Z,3.92
2022-12-24T09:02:57.891Z,3.97
2022-12-24T09:06:03.920Z,4.10
2022-12-24T09:09:06.440Z,4.90
2022-12-24T09:12:10.041Z,5.32
2022-12-24T09:15:14.329Z,5.03
2022-12-24T09:18:16.885Z,4.68
2022-12-24T09:21:19.146Z,4.25
2022-12-24T09:24:22.046Z,4.20
2022-12-24T09:27:24.178Z,4.12
2022-12-24T09:30:26.659Z,3.60
2022-12-24T09:33:31.349Z,4.60
2022-12-24T09:36:34.595Z,3.95
2022-12-24T09:39:36.808Z,3.55
2022-12-24T09:42:57.572Z,4.30
2022-12-24T09:46:27.768Z,4.22
2022-12-24T09:49:45.136Z,4.60
2022-12-24T09:52:48.578Z,3.45
2022-12-24T09:55:56.287Z,2.80
2022-12-24T09:59:01.653Z,2.95
2022-12-24T10:02:11.548Z,2.50
2022-12-24T10:05:15.772Z,2.72
2022-12-24T10:08:39.533Z,2.75
2022-12-24T10:11:53.827Z,2.60
2022-12-24T10:15:14.076Z,2.55
2022-12-24T10:18:29.852Z,2.50
2022-12-24T10:21:47.665Z,2.20
2022-12-24T10:25:13.690Z,2.28
2022-12-24T10:28:18.697Z,2.30
2022-12-24T10:31:35.689Z,2.47
2022-12-24T10:35:06.317Z,2.40
2022-12-24T10:38:09.293Z,2.78
2022-12-24T10:41:13.101Z,2.28
2022-12-24T10:44:18.979Z,2.37
2022-12-24T10:47:22.690Z,2.67
2022-12-24T10:50:39.536Z,2.78
2022-12-24T10:53:49.353Z,2.90
2022-12-24T10:56:57.072Z,3.10
2022-12-24T11:00:00.017Z,3.30
2022-12-24T11:03:11.544Z,3.05
2022-12-24T11:06:21.092Z,2.67
2022-12-24T11:09:30.107Z,2.80
2022-12-24T11:12:35.427Z,2.17
2022-12-24T11:15:38.093Z,2.10
2022-12-24T11:18:51.133Z,2.20
2022-12-24T11:22:22.452Z,1.90
2022-12-24T11:25:31.670Z,1.90
2022-12-24T11:28:34.249Z,1.77
2022-12-24T11:31:37.935Z,1.75
2022-12-24T11:34:43.547Z,1.60
2022-12-24T11:37:45.762Z,1.60
2022-12-24T11:40:51.044Z,1.40
2022-12-24T11:44:03.727Z,1.17
2022-12-24T11:47:13.870Z,1.58
2022-12-24T11:50:22.194Z,1.27
2022-12-24T11:53:30.739Z,1.55
2022-12-24T11:56:49.913Z,1.40
2022-12-24T11:59:52.565Z,1.50
2022-12-24T12:02:58.163Z,1.60
2022-12-24T12:06:04.256Z,1.60
2022-12-24T12:09:13.181Z,1.40
2022-12-24T12:12:22.087Z,2.00
2022-12-24T12:15:37.609Z,1.55
2022-12-24T12:18:47.087Z,1.75
2022-12-24T12:21:49.886Z,2.03
2022-12-24T12:24:55.921Z,1.60
2022-12-24T12:28:00.399Z,1.73
2022-12-24T12:31:15.467Z,1.35
2022-12-24T12:34:43.793Z,1.70
2022-12-24T12:37:58.829Z,1.23
2022-12-24T12:41:12.213Z,1.48
2022-12-24T12:44:41.242Z,1.33
2022-12-24T12:47:46.008Z,1.30
2022-12-24T12:51:00.689Z,1.30
2022-12-24T12:54:35.510Z,1.30
2022-12-24T12:57:40.014Z,1.30
2022-12-24T13:00:46.196Z,1.15
2022-12-24T13:04:14.258Z,1.30
2022-12-24T13:07:38.011Z,1.25
2022-12-24T13:11:02.095Z,1.48
2022-12-24T13:14:22.562Z,1.48
2022-12-24T13:17:34.912Z,1.45
2022-12-24T13:20:46.580Z,1.52
2022-12-24T13:23:49.755Z,1.40
2022-12-24T13:27:15.638Z,1.67
2022-12-24T13:30:40.933Z,1.40
2022-12-24T13:33:43.047Z,1.08
2022-12-24T13:37:19.275Z,1.58
2022-12-24T13:40:26.875Z,1.55
2022-12-24T13:44:04.692Z,1.30
2022-12-24T13:47:13.024Z,1.12
2022-12-24T13:50:24.367Z,1.50
2022-12-24T13:53:41.518Z,1.52
2022-12-24T13:56:44.054Z,1.35
2022-12-24T13:59:46.810Z,1.23
2022-12-24T14:02:58.939Z,1.33
2022-12-24T14:06:08.323Z,1.23
2022-12-24T14:09:16.160Z,1.52
2022-12-24T14:12:49.706Z,1.52
2022-12-24T14:15:55.020Z,1.40
2022-12-24T14:19:20.983Z,1.30
2022-12-24T14:22:23.100Z,1.60
2022-12-24T14:25:25.810Z,1.23
2022-12-24T14:28:44.073Z,1.55
2022-12-24T14:31:55.742Z,1.37
2022-12-24T14:35:07.046Z,1.50
2022-12-24T14:38:18.577Z,1.52
2022-12-24T14:41:23.832Z,2.00
2022-12-24T14:44:37.576Z,1.70
2022-12-24T14:47:58.898Z,1.70
2022-12-24T14:51:30.441Z,1.50
2022-12-24T14:54:40.198Z,1.50
2022-12-24T14:57:42.615Z,1.70
2022-12-24T15:00:44.945Z,1.70
2022-12-24T15:04:19.865Z,1.55
2022-12-24T15:07:22.081Z,2.00
2022-12-24T15:10:35.000Z,2.03
2022-12-24T15:13:42.907Z,2.05
2022-12-24T15:16:57.936Z,2.40
2022-12-24T15:20:01.799Z,2.17
2022-12-24T15:23:05.155Z,2.22
2022-12-24T15:26:27.994Z,2.22
2022-12-24T15:29:33.280Z,2.33
2022-12-24T15:32:35.494Z,2.10
2022-12-24T15:35:49.438Z,1.55
2022-12-24T15:38:54.986Z,2.05
2022-12-24T15:42:16.059Z,1.60
2022-12-24T15:45:27.547Z,2.30
2022-12-24T15:48:32.588Z,2.22
2022-12-24T15:51:40.425Z,2.30
2022-12-24T15:54:45.616Z,2.03
2022-12-24T15:57:47.872Z,2.50
2022-12-24T16:01:02.469Z,2.30
2022-12-24T16:04:14.240Z,2.65
2022-12-24T16:07:46.855Z,2.70
2022-12-24T16:11:11.148Z,2.87
2022-12-24T16:14:19.459Z,3.33
2022-12-24T16:17:24.483Z,2.83
2022-12-24T16:20:26.767Z,2.95
2022-12-24T16:23:50.708Z,3.08
2022-12-24T16:26:53.873Z,3.10
2022-12-24T16:29:56.357Z,3.58
2022-12-24T16:32:58.630Z,3.67
2022-12-24T16:36:01.118Z,3.35
2022-12-24T16:39:22.321Z,3.42
2022-12-24T16:42:43.205Z,3.17
2022-12-24T16:45:47.098Z,3.10
2022-12-24T16:48:49.618Z,3.03
2022-12-24T16:51:52.094Z,2.90
2022-12-24T16:54:56.083Z,2.87
2022-12-24T16:57:58.347Z,3.03
2022-12-24T17:01:06.619Z,3.22
2022-12-24T17:04:08.933Z,2.70
2022-12-24T17:07:13.566Z,3.33
2022-12-24T17:10:15.803Z,3.78
2022-12-24T17:13:18.305Z,3.83
2022-12-24T17:16:20.610Z,3.70
2022-12-24T17:19:23.206Z,4.12
2022-12-24T17:22:27.681Z,3.45
2022-12-24T17:25:30.157Z,3.40
2022-12-24T17:28:32.299Z,3.17
2022-12-24T17:31:35.076Z,3.30
2022-12-24T17:34:37.672Z,3.12
2022-12-24T17:37:40.068Z,3.20
2022-12-24T17:40:42.258Z,3.22
2022-12-24T17:43:45.118Z,3.60
2022-12-24T17:46:47.364Z,3.25
2022-12-24T17:49:49.873Z,3.10
2022-12-24T17:52:52.054Z,3.10
2022-12-24T17:55:54.550Z,3.30
2022-12-24T17:58:57.964Z,2.85
2022-12-24T18:02:00.649Z,3.37
2022-12-24T18:05:04.407Z,3.22
2022-12-24T18:08:06.597Z,3.00
2022-12-24T18:11:16.286Z,3.00
2022-12-24T18:14:18.464Z,3.50
2022-12-24T18:17:22.371Z,4.57
2022-12-24T18:20:24.768Z,6.65
2022-12-24T18:23:27.201Z,7.10
2022-12-24T18:26:31.190Z,7.20
2022-12-24T18:29:33.719Z,6.87
2022-12-24T18:32:36.623Z,8.00
2022-12-24T18:35:39.636Z,8.40
2022-12-24T18:38:42.178Z,7.60
2022-12-24T18:41:44.713Z,7.32
2022-12-24T18:44:46.981Z,7.78
2022-12-24T18:47:49.538Z,7.25
2022-12-24T18:50:57.484Z,8.20
2022-12-24T18:54:00.179Z,8.27
2022-12-24T18:57:02.533Z,8.35
2022-12-24T19:00:05.500Z,7.50
2022-12-24T19:03:08.177Z,8.10
2022-12-24T19:06:11.671Z,7.20
2022-12-24T19:09:13.877Z,8.43
2022-12-24T19:12:16.335Z,8.27
2022-12-24T19:15:18.744Z,6.20
2022-12-24T19:18:21.277Z,7.28
2022-12-24T19:21:23.824Z,6.97
2022-12-24T19:24:26.356Z,6.72
2022-12-24T19:27:28.555Z,7.12
2022-12-24T19:30:30.989Z,7.00
2022-12-24T19:33:49.139Z,6.75
2022-12-24T19:36:52.798Z,6.90
2022-12-24T19:39:54.969Z,5.68
2022-12-24T19:42:58.152Z,3.20
2022-12-24T19:46:00.315Z,4.30
2022-12-24T19:49:06.516Z,4.65
2022-12-24T19:52:08.695Z,4.28
2022-12-24T19:55:12.004Z,5.53
2022-12-24T19:58:14.197Z,6.68
2022-12-24T20:01:22.447Z,6.00
2022-12-24T20:04:25.165Z,7.00
2022-12-24T20:07:27.373Z,6.65
2022-12-24T20:10:29.866Z,6.57
2022-12-24T20:13:33.427Z,7.78
2022-12-24T20:16:36.040Z,6.53
2022-12-24T20:19:38.489Z,7.10
2022-12-24T20:22:41.051Z,6.70
2022-12-24T20:25:43.194Z,6.68
2022-12-24T20:28:46.103Z,5.93
2022-12-24T20:31:48.288Z,6.18
2022-12-24T20:34:50.767Z,5.95
2022-12-24T20:37:52.918Z,6.25
2022-12-24T20:40:57.003Z,6.22
2022-12-24T20:44:00.858Z,6.28
2022-12-24T20:47:03.463Z,6.50
2022-12-24T20:50:06.452Z,6.50
2022-12-24T20:53:09.271Z,5.90
2022-12-24T20:56:12.885Z,6.85
2022-12-24T20:59:15.450Z,6.25
2022-12-24T21:02:18.025Z,6.82
2022-12-24T21:05:20.682Z,7.47
2022-12-24T21:08:23.224Z,6.40
2022-12-24T21:11:44.693Z,6.45
2022-12-24T21:17:49.154Z,6.97
2022-12-24T21:20:54.813Z,6.93
2022-12-24T21:23:57.586Z,6.50
2022-12-24T21:26:59.780Z,7.00
2022-12-24T21:30:06.083Z,7.25
2022-12-24T21:33:08.268Z,6.20
2022-12-24T21:36:12.362Z,7.57
2022-12-24T21:39:14.599Z,6.45
2022-12-24T21:42:17.089Z,6.60
2022-12-24T21:45:19.319Z,7.12
2022-12-24T21:48:40.644Z,6.68
2022-12-24T21:51:44.775Z,7.03
2022-12-24T21:54:47.462Z,6.85
2022-12-24T21:57:52.501Z,7.87
2022-12-24T22:00:55.013Z,7.05
2022-12-24T22:03:57.557Z,7.87
2022-12-24T22:07:19.589Z,7.35
2022-12-24T22:10:40.916Z,7.68
2022-12-24T22:13:43.077Z,8.13
2022-12-24T22:16:46.751Z,7.62
2022-12-24T22:19:48.991Z,7.70
2022-12-24T22:22:51.597Z,7.45
2022-12-24T22:25:53.716Z,7.93
2022-12-24T22:28:56.211Z,7.22
2022-12-24T22:31:58.341Z,7.72
2022-12-24T22:35:00.823Z,7.68
2022-12-24T22:38:03.125Z,8.18
2022-12-24T22:41:09.167Z,8.07
2022-12-24T22:44:11.301Z,7.87
2022-12-24T22:47:13.841Z,8.52
2022-12-24T22:50:16.289Z,8.48
2022-12-24T22:53:18.755Z,8.32
2022-12-24T22:56:22.781Z,8.10
2022-12-24T22:59:25.541Z,8.35
2022-12-24T23:02:28.625Z,8.40
2022-12-24T23:05:31.700Z,9.05
2022-12-24T23:08:36.228Z,8.68
2022-12-24T23:11:40.304Z,8.85
2022-12-24T23:14:57.704Z,9.07
2022-12-24T23:18:00.244Z,8.73
2022-12-24T23:21:05.465Z,9.13
2022-12-24T23:24:11.064Z,9.05
2022-12-24T23:27:13.230Z,9.88
2022-12-24T23:30:16.153Z,8.77
2022-12-24T23:33:18.349Z,8.38
2022-12-24T23:36:21.227Z,9.38
2022-12-24T23:39:23.568Z,9.05
2022-12-24T23:42:26.099Z,8.63
2022-12-24T23:45:28.354Z,8.35
2022-12-24T23:48:30.896Z,8.73
2022-12-24T23:51:33.047Z,8.35
2022-12-24T23:54:35.725Z,8.68
2022-12-24T23:57:38.057Z,8.93
